Time;durP1;ratioP1;P1;durP2;ratioP2;P2;SDS_P1;SDS_P2;PMS_P1;PMS_P2;Temp;Humidity;BMP_temperature;BMP_pressure;BME280_temperature;BME280_humidity;BME280_pressure;Samples;Min_cycle;Max_cycle;Signal;HPM_P1;HPM_P2
2022/06/07 00:01:27;;;;;;;5.07;2.88;;;;;;;18.69;93.79;97862.19;5076509;28;20043;-83
2022/06/07 00:03:53;;;;;;;5.05;2.80;;;;;;;18.79;93.67;97865.63;5074091;28;20017;-86
2022/06/07 00:06:18;;;;;;;5.13;3.00;;;;;;;18.74;93.94;97866.66;5074649;28;20039;-83
2022/06/07 00:08:43;;;;;;;8.02;3.40;;;;;;;18.61;94.17;97854.00;5073197;28;20025;-84
2022/06/07 00:11:09;;;;;;;4.60;3.20;;;;;;;18.47;95.91;97856.31;5075135;28;20048;-85
2022/06/07 00:13:34;;;;;;;5.50;3.10;;;;;;;18.51;96.19;97851.72;5076182;28;20017;-83
2022/06/07 00:16:00;;;;;;;4.82;3.30;;;;;;;18.56;96.19;97857.84;5078476;28;20036;-82
2022/06/07 00:18:25;;;;;;;6.47;3.17;;;;;;;18.42;97.32;97842.72;5078989;28;20017;-83
2022/06/07 00:20:51;;;;;;;4.47;3.08;;;;;;;18.54;96.49;97851.03;5076790;28;20025;-86
2022/06/07 00:23:18;;;;;;;7.03;3.33;;;;;;;18.44;96.86;97846.75;5076498;28;20079;-84
2022/06/07 00:25:46;;;;;;;4.75;3.42;;;;;;;18.45;97.56;97853.88;5077319;28;20017;-84
2022/06/07 00:28:12;;;;;;;5.50;3.10;;;;;;;18.42;97.31;97842.72;5077531;28;20063;-86
2022/06/07 00:30:38;;;;;;;3.92;2.88;;;;;;;18.35;97.99;97845.25;5059434;28;20001;-84
2022/06/07 00:33:04;;;;;;;6.70;3.03;;;;;;;18.26;99.57;97850.13;5076694;28;20035;-85
2022/06/07 00:35:30;;;;;;;7.70;3.60;;;;;;;18.04;100.00;97849.41;5059189;28;20021;-84
2022/06/07 00:37:55;;;;;;;5.60;3.80;;;;;;;17.91;100.00;97833.19;5076300;28;20017;-86
2022/06/07 00:40:20;;;;;;;7.38;3.70;;;;;;;17.94;100.00;97844.38;5076337;28;20029;-86
2022/06/07 00:42:46;;;;;;;7.22;3.83;;;;;;;17.90;100.00;97832.38;5076436;28;20032;-86
2022/06/07 00:45:16;;;;;;;6.32;3.67;;;;;;;17.90;100.00;97835.13;5059317;28;20033;-85
2022/06/07 00:47:42;;;;;;;6.53;3.70;;;;;;;17.93;100.00;97831.69;5058181;28;20035;-84
2022/06/07 00:50:16;;;;;;;7.22;3.60;;;;;;;17.94;100.00;97833.31;5076047;28;20099;-86
2022/06/07 00:52:41;;;;;;;6.45;3.50;;;;;;;17.78;100.00;97823.25;5075854;28;20028;-84
2022/06/07 00:55:08;;;;;;;4.95;3.63;;;;;;;17.76;100.00;97820.03;5074878;28;20055;-84
2022/06/07 00:57:34;;;;;;;4.28;3.13;;;;;;;17.86;100.00;97816.78;5068343;28;20097;-85
2022/06/07 01:00:01;;;;;;;9.57;3.92;;;;;;;17.91;100.00;97822.09;5068504;28;20049;-83
2022/06/07 01:02:26;;;;;;;8.40;3.90;;;;;;;17.91;100.00;97824.88;5077050;28;20097;-83
2022/06/07 01:04:52;;;;;;;6.30;3.88;;;;;;;17.97;100.00;97832.59;5077042;28;20056;-85
2022/06/07 01:12:47;;;;;;;5.65;3.40;;;;;;;17.90;100.00;97832.38;5076895;28;20101;-86
2022/06/07 01:15:13;;;;;;;6.40;3.45;;;;;;;17.90;100.00;97832.38;5076345;28;20064;-85
2022/06/07 01:17:38;;;;;;;6.15;3.70;;;;;;;17.84;100.00;97814.38;5076136;28;20032;-86
2022/06/07 01:20:05;;;;;;;7.45;3.80;;;;;;;17.81;100.00;97812.31;5076686;28;20035;-83
2022/06/07 01:22:33;;;;;;;5.22;3.67;;;;;;;17.87;100.00;97808.16;5076144;28;20005;-87
2022/06/07 01:25:00;;;;;;;6.50;4.32;;;;;;;17.89;100.00;97805.03;5076337;28;20033;-84
2022/06/07 01:27:25;;;;;;;4.70;3.30;;;;;;;17.92;100.00;97793.25;5060107;28;20067;-85
2022/06/07 01:29:51;;;;;;;7.45;3.75;;;;;;;18.07;100.00;97798.91;5077677;28;20016;-84
2022/06/07 01:32:18;;;;;;;8.30;3.45;;;;;;;18.00;100.00;97790.38;5077931;28;20012;-82
2022/06/07 01:34:44;;;;;;;6.78;3.30;;;;;;;17.96;100.00;97781.16;5077645;28;20025;-87
2022/06/07 01:37:15;;;;;;;7.30;3.75;;;;;;;17.91;100.00;97773.09;5059962;28;20021;-84
2022/06/07 01:42:25;;;;;;;4.95;3.22;;;;;;;17.86;100.00;97769.75;5076251;28;20044;-84
2022/06/07 01:44:51;;;;;;;5.20;3.40;;;;;;;17.82;100.00;97764.13;5077154;28;20029;-82
2022/06/07 01:47:23;;;;;;;5.30;3.47;;;;;;;17.78;100.00;97767.91;5076496;28;20056;-82
2022/06/07 01:49:49;;;;;;;5.35;3.35;;;;;;;17.73;100.00;97760.63;5077326;28;20036;-86
2022/06/07 01:52:18;;;;;;;4.68;3.03;;;;;;;17.56;100.00;97756.16;5057834;28;20041;-85
2022/06/07 01:54:43;;;;;;;5.93;3.60;;;;;;;17.56;100.00;97749.81;5073240;28;20051;-86
2022/06/07 01:57:09;;;;;;;5.90;3.30;;;;;;;17.48;100.00;97753.47;5076278;28;20029;-85
2022/06/07 01:59:35;;;;;;;6.57;4.20;;;;;;;17.39;100.00;97747.22;5075592;28;20123;-85
2022/06/07 02:02:01;;;;;;;5.55;3.10;;;;;;;17.44;100.00;97741.50;5075475;28;20025;-85
2022/06/07 02:04:27;;;;;;;5.38;3.58;;;;;;;17.29;100.00;97729.13;5057120;28;20040;-84
2022/06/07 02:06:52;;;;;;;5.93;3.75;;;;;;;17.46;100.00;97733.66;5073840;28;20029;-83
2022/06/07 02:09:18;;;;;;;6.10;3.15;;;;;;;17.49;100.00;97732.94;5075497;28;20040;-82
2022/06/07 02:11:44;;;;;;;4.43;3.38;;;;;;;17.45;100.00;97727.31;5075711;28;20036;-83
2022/06/07 02:14:11;;;;;;;4.43;3.28;;;;;;;17.39;100.00;97725.09;5075421;28;20025;-84
2022/06/07 02:16:38;;;;;;;5.95;3.85;;;;;;;17.29;100.00;97723.59;5056150;28;20021;-82
2022/06/07 02:19:04;;;;;;;4.55;3.22;;;;;;;17.12;100.00;97721.88;5072918;28;20037;-86
2022/06/07 02:21:31;;;;;;;6.05;3.75;;;;;;;17.08;100.00;97720.94;5072385;28;20102;-83
2022/06/07 02:23:56;;;;;;;5.47;3.78;;;;;;;17.01;100.00;97736.47;5074826;28;20005;-82
2022/06/07 02:26:29;;;;;;;6.97;3.90;;;;;;;16.81;100.00;97723.53;5059322;28;20043;-83
2022/06/07 02:29:11;;;;;;;5.20;3.42;;;;;;;16.73;100.00;97725.22;5069080;28;20386;-85
2022/06/07 02:31:40;;;;;;;4.10;3.03;;;;;;;16.98;100.00;97718.63;5066248;28;20021;-83
2022/06/07 02:34:07;;;;;;;4.32;3.03;;;;;;;17.14;100.00;97716.81;5055307;28;20054;-83
2022/06/07 02:36:33;;;;;;;7.10;3.90;;;;;;;17.15;100.00;97714.84;5037401;28;20123;-83
2022/06/07 02:39:00;;;;;;;5.85;3.90;;;;;;;17.21;100.00;97709.91;5054080;28;20029;-81
2022/06/07 02:41:27;;;;;;;4.40;3.17;;;;;;;17.17;100.00;97706.19;5052240;28;20017;-80
2022/06/07 02:43:54;;;;;;;5.88;3.55;;;;;;;16.98;100.00;97695.69;5052441;28;20505;-81
2022/06/07 02:46:19;;;;;;;7.45;3.58;;;;;;;16.93;100.00;97693.97;5052212;28;20471;-80
2022/06/07 02:48:45;;;;;;;5.00;3.55;;;;;;;16.94;100.00;97695.59;5052498;28;20029;-80
2022/06/07 02:51:11;;;;;;;6.05;3.90;;;;;;;16.94;100.00;97692.84;5053485;28;20104;-81
2022/06/07 02:53:36;;;;;;;4.90;3.60;;;;;;;16.91;100.00;97688.00;5052674;28;20037;-78
2022/06/07 02:56:03;;;;;;;6.65;3.97;;;;;;;16.86;100.00;97692.91;5052903;28;20021;-81
2022/06/07 02:58:29;;;;;;;7.10;3.50;;;;;;;16.89;100.00;97690.28;5053281;28;20092;-83
2022/06/07 03:00:58;;;;;;;5.32;3.50;;;;;;;16.93;100.00;97684.88;5053648;28;20048;-83
2022/06/07 03:03:24;;;;;;;4.82;3.58;;;;;;;16.95;100.00;97686.13;5054857;28;20036;-82
2022/06/07 03:05:49;;;;;;;5.07;3.78;;;;;;;16.93;100.00;97688.47;5054035;28;20045;-80
2022/06/07 03:08:17;;;;;;;6.43;3.65;;;;;;;16.80;100.00;97692.34;5053512;28;20114;-80
2022/06/07 03:10:42;;;;;;;5.20;3.65;;;;;;;16.77;100.00;97689.44;5053604;28;20021;-82
2022/06/07 03:13:08;;;;;;;6.90;3.50;;;;;;;16.69;100.00;97688.41;5053229;28;20546;-80
2022/06/07 03:15:33;;;;;;;6.00;3.65;;;;;;;16.70;100.00;97695.53;5052562;28;20029;-80
2022/06/07 03:17:58;;;;;;;6.03;3.72;;;;;;;16.77;100.00;97689.44;5051541;28;20032;-78
2022/06/07 03:20:24;;;;;;;5.28;3.67;;;;;;;16.88;100.00;97688.69;5052925;28;20079;-81
2022/06/07 03:22:49;;;;;;;7.35;3.97;;;;;;;16.81;100.00;97690.38;5038880;28;20061;-80
2022/06/07 03:25:14;;;;;;;10.43;3.58;;;;;;;16.97;100.00;97694.09;5034892;28;20037;-80
2022/06/07 03:27:40;;;;;;;5.80;3.88;;;;;;;17.48;100.00;97700.91;5043902;28;20033;-80
2022/06/07 03:30:08;;;;;;;5.75;3.20;;;;;;;17.91;100.00;97701.16;5032476;28;20032;-79
2022/06/07 03:32:34;;;;;;;5.40;3.92;;;;;;;18.51;100.00;97691.06;5032536;28;20116;-82
2022/06/07 03:35:00;;;;;;;5.22;3.85;;;;;;;19.53;100.00;97709.56;5031609;28;20123;-81
2022/06/07 03:37:26;;;;;;;6.30;3.30;;;;;;;20.21;100.00;97705.19;5031984;28;20499;-80
2022/06/07 03:39:51;;;;;;;7.95;3.80;;;;;;;20.88;95.35;97703.00;5040141;28;20508;-85
2022/06/07 03:42:17;;;;;;;8.52;3.90;;;;;;;21.31;90.66;97702.63;5053391;28;20017;-81
2022/06/07 03:44:50;;;;;;;6.13;3.45;;;;;;;22.37;84.60;97706.22;5051491;28;20033;-81
2022/06/07 03:47:17;;;;;;;6.60;3.47;;;;;;;23.40;78.41;97706.22;5051039;28;20343;-81
2022/06/07 03:49:42;;;;;;;5.47;3.78;;;;;;;23.40;77.86;97711.00;5055392;28;20029;-79
2022/06/07 03:52:08;;;;;;;5.05;3.40;;;;;;;23.24;78.23;97700.06;5054815;28;20020;-80
2022/06/07 03:54:34;;;;;;;6.32;3.55;;;;;;;23.24;78.52;97702.84;5056156;28;20386;-80
2022/06/07 03:57:00;;;;;;;4.97;3.50;;;;;;;23.45;77.00;97711.47;5055709;28;20421;-80
2022/06/07 03:59:27;;;;;;;8.45;3.50;;;;;;;23.53;76.44;97705.91;5056206;28;20044;-80
2022/06/07 04:01:53;;;;;;;5.85;3.50;;;;;;;24.84;70.93;97707.56;5056203;28;20115;-79
2022/06/07 04:04:19;;;;;;;8.02;3.83;;;;;;;24.33;71.50;97711.31;5053460;28;20028;-77
2022/06/07 04:08:10;;;;;;;9.27;3.72;;;;;;;23.25;77.33;97698.88;5042678;28;20018;-79
2022/06/07 04:09:39;;;;;;;7.57;4.18;;;;;;;23.10;78.65;97694.34;5040532;28;20112;-78
2022/06/07 04:12:06;;;;;;;5.68;3.60;;;;;;;22.40;82.82;97689.53;5043353;28;20171;-78
2022/06/07 04:14:31;;;;;;;8.13;3.92;;;;;;;22.96;80.65;97683.06;5041940;28;20029;-77
2022/06/07 04:16:56;;;;;;;6.90;3.78;;;;;;;24.99;70.57;97686.78;5044761;28;20083;-78
2022/06/07 04:19:22;;;;;;;6.47;3.47;;;;;;;25.73;65.72;97691.66;5041016;28;20099;-77
2022/06/07 04:21:47;;;;;;;12.50;3.63;;;;;;;26.81;61.69;97695.44;5044404;28;20036;-78
2022/06/07 04:24:12;;;;;;;7.95;3.20;;;;;;;25.39;65.68;97694.84;5047588;28;20033;-77
2022/06/07 04:26:38;;;;;;;5.95;3.40;;;;;;;23.60;71.31;97686.44;5053662;28;20479;-78
2022/06/07 04:29:03;;;;;;;5.35;4.15;;;;;;;22.57;76.97;97681.78;5054183;28;20490;-77
2022/06/07 04:31:29;;;;;;;6.80;4.13;;;;;;;21.90;80.60;97678.91;5057949;28;20021;-82
2022/06/07 04:34:00;;;;;;;9.27;5.30;;;;;;;20.94;86.68;97670.94;5053300;28;20063;-74
2022/06/07 04:36:27;;;;;;;7.57;4.20;;;;;;;20.86;89.09;97673.97;5039163;28;20714;-73
2022/06/07 04:38:57;;;;;;;7.32;4.40;;;;;;;20.57;90.18;97670.66;5040512;28;20029;-75
2022/06/07 04:41:23;;;;;;;5.40;4.05;;;;;;;20.55;90.95;97666.63;5041223;28;20037;-75
2022/06/07 04:43:51;;;;;;;7.13;4.55;;;;;;;20.24;92.79;97665.56;5053905;28;20029;-73
2022/06/07 04:46:18;;;;;;;9.38;4.65;;;;;;;20.07;93.74;97668.81;5054797;28;20116;-73
2022/06/07 04:48:44;;;;;;;6.20;4.50;;;;;;;19.96;94.69;97653.06;5052665;28;20056;-73
2022/06/07 04:51:16;;;;;;;6.45;4.40;;;;;;;19.76;96.30;97652.25;5052375;28;20021;-75
2022/06/07 04:53:42;;;;;;;8.85;4.43;;;;;;;19.89;95.90;97653.69;5052596;28;20033;-71
2022/06/07 04:56:13;;;;;;;6.10;4.55;;;;;;;19.92;95.96;97644.69;5052453;28;20031;-73
2022/06/07 04:58:39;;;;;;;6.78;4.45;;;;;;;20.16;94.31;97651.91;5052281;28;20482;-72
2022/06/07 05:01:11;;;;;;;8.77;4.97;;;;;;;19.97;94.52;97643.56;5052224;28;20063;-70
2022/06/07 05:03:37;;;;;;;6.60;4.90;;;;;;;20.09;93.93;97655.34;5052774;28;20032;-70
2022/06/07 05:06:03;;;;;;;6.78;4.45;;;;;;;19.97;95.19;97647.16;5035112;28;20029;-73
2022/06/07 05:08:29;;;;;;;8.65;4.30;;;;;;;19.91;95.37;97654.16;5051592;28;20112;-72
2022/06/07 05:10:54;;;;;;;6.10;4.30;;;;;;;19.92;95.07;97653.00;5051460;28;20108;-70
2022/06/07 05:13:21;;;;;;;6.72;4.57;;;;;;;19.92;94.98;97646.66;5052347;28;20466;-73
2022/06/07 05:15:56;;;;;;;8.57;4.30;;;;;;;20.03;94.97;97651.25;5051809;28;20017;-70
2022/06/07 05:18:21;;;;;;;6.13;4.80;;;;;;;20.11;93.90;97653.00;5051882;28;20507;-71
2022/06/07 05:20:46;;;;;;;9.93;4.82;;;;;;;19.64;96.62;97655.16;5052099;28;20076;-72
2022/06/07 05:23:13;;;;;;;6.80;4.55;;;;;;;19.49;98.37;97664.28;5052839;28;20461;-70
2022/06/07 05:25:41;;;;;;;7.53;4.53;;;;;;;19.47;98.32;97666.63;5052006;28;20044;-70
2022/06/07 05:28:09;;;;;;;6.45;4.78;;;;;;;19.54;98.38;97669.56;5051630;28;20029;-72
2022/06/07 05:30:34;;;;;;;7.68;4.32;;;;;;;19.47;98.72;97669.41;5050596;28;20035;-71
2022/06/07 05:33:00;;;;;;;6.68;4.85;;;;;;;19.59;97.69;97669.28;5047368;28;20013;-73
2022/06/07 05:35:26;;;;;;;8.40;4.95;;;;;;;19.78;95.67;97663.78;5038079;28;20065;-73
2022/06/07 05:37:56;;;;;;;8.88;4.65;;;;;;;19.91;95.43;97656.13;5031908;28;20097;-71
2022/06/07 05:40:22;;;;;;;8.05;4.75;;;;;;;20.13;94.10;97660.97;5051514;28;20056;-72
2022/06/07 05:42:47;;;;;;;5.57;4.50;;;;;;;20.54;90.93;97660.25;5051738;28;20029;-72
2022/06/07 05:45:13;;;;;;;8.80;5.60;;;;;;;20.79;88.62;97657.94;5051747;28;20011;-72
2022/06/07 05:47:38;;;;;;;9.23;4.82;;;;;;;21.05;88.08;97655.22;5051502;28;20486;-71
2022/06/07 05:50:07;;;;;;;7.78;4.75;;;;;;;21.36;86.21;97652.19;5051061;28;20024;-71
2022/06/07 05:52:36;;;;;;;7.80;4.68;;;;;;;21.44;85.67;97646.75;5030767;28;20059;-71
2022/06/07 05:55:02;;;;;;;7.65;4.13;;;;;;;21.65;84.14;97641.50;5031204;28;20033;-72
2022/06/07 05:57:28;;;;;;;7.38;4.85;;;;;;;21.41;84.25;97645.53;5030889;28;20025;-71
2022/06/07 05:59:53;;;;;;;6.45;4.93;;;;;;;21.77;83.10;97641.31;5031767;28;20032;-72
2022/06/07 06:02:18;;;;;;;6.47;4.40;;;;;;;21.56;84.48;97650.13;5032930;28;20020;-73
2022/06/07 06:04:44;;;;;;;6.30;4.30;;;;;;;21.40;84.47;97655.03;5030283;28;20026;-72
2022/06/07 06:07:09;;;;;;;8.88;4.95;;;;;;;21.55;83.91;97659.66;5031173;28;20022;-73
2022/06/07 06:12:21;;;;;;;6.80;4.55;;;;;;;21.77;84.44;97660.81;5037068;28;20079;-71
2022/06/07 06:14:46;;;;;;;6.53;4.65;;;;;;;22.65;78.28;97658.34;5038607;28;20032;-72
2022/06/07 06:17:12;;;;;;;8.30;4.40;;;;;;;22.96;77.04;97662.72;5050804;28;20394;-71
2022/06/07 06:19:37;;;;;;;7.93;5.00;;;;;;;22.48;77.95;97656.19;5045045;28;20061;-70
2022/06/07 06:22:03;;;;;;;7.88;4.75;;;;;;;21.98;81.29;97661.13;5040319;28;20458;-71
2022/06/07 06:24:28;;;;;;;8.07;5.38;;;;;;;22.15;79.84;97657.75;5035453;28;20045;-70
2022/06/07 06:26:54;;;;;;;8.00;4.75;;;;;;;22.23;79.50;97656.69;5037588;28;20033;-72
2022/06/07 06:29:20;;;;;;;6.80;4.78;;;;;;;22.13;80.22;97664.91;5039966;28;20509;-71
2022/06/07 06:31:47;;;;;;;8.05;4.72;;;;;;;22.18;80.23;97658.97;5040321;28;20104;-71
2022/06/07 06:34:15;;;;;;;9.00;5.18;;;;;;;22.28;79.12;97664.69;5022201;28;20468;-70
2022/06/07 06:36:41;;;;;;;6.03;4.50;;;;;;;22.75;77.99;97655.72;5041497;28;20005;-72
2022/06/07 06:39:06;;;;;;;7.50;4.90;;;;;;;22.82;77.77;97655.00;5038190;28;20048;-71
2022/06/07 06:41:33;;;;;;;6.03;4.53;;;;;;;22.74;78.78;97665.25;5037761;28;20075;-72
2022/06/07 06:44:01;;;;;;;6.60;4.53;;;;;;;22.47;79.58;97660.13;5039282;28;20023;-71
2022/06/07 06:46:32;;;;;;;7.20;4.90;;;;;;;22.72;78.87;97662.06;5040505;28;20025;-72
2022/06/07 06:48:57;;;;;;;7.60;5.55;;;;;;;23.06;77.43;97660.00;5043968;28;20025;-71
2022/06/07 06:51:25;;;;;;;6.40;4.57;;;;;;;23.34;76.61;97671.44;5044127;28;20548;-71
2022/06/07 06:53:50;;;;;;;6.40;4.20;;;;;;;23.80;74.35;97665.44;5046979;28;20020;-72
2022/06/07 06:56:21;;;;;;;8.30;4.80;;;;;;;24.13;73.05;97662.47;5042163;28;20498;-72
2022/06/07 06:58:49;;;;;;;7.53;4.07;;;;;;;24.38;71.43;97663.38;5045905;28;20056;-71
2022/06/07 07:01:17;;;;;;;8.30;4.07;;;;;;;24.68;70.71;97659.50;5038369;28;20029;-71
2022/06/07 07:03:43;;;;;;;5.28;3.90;;;;;;;25.27;68.53;97656.03;5037818;28;20052;-70
2022/06/07 07:06:13;;;;;;;6.55;4.55;;;;;;;24.58;70.05;97654.66;5037364;28;20482;-70
2022/06/07 07:08:43;;;;;;;6.88;4.07;;;;;;;24.39;70.76;97658.59;5045740;28;20390;-70
2022/06/07 07:11:21;;;;;;;5.90;4.43;;;;;;;23.30;73.92;97659.44;5040651;28;20049;-70
2022/06/07 07:13:48;;;;;;;5.40;4.22;;;;;;;23.95;72.27;97658.75;5037142;28;20018;-71
2022/06/07 07:16:17;;;;;;;11.85;4.72;;;;;;;23.99;71.30;97653.97;5039414;28;20025;-70
2022/06/07 07:18:43;;;;;;;7.15;4.50;;;;;;;23.35;73.32;97655.47;5039446;28;20017;-71
2022/06/07 07:21:13;;;;;;;6.65;4.28;;;;;;;23.75;71.75;97647.03;5041154;28;20041;-70
2022/06/07 07:23:38;;;;;;;6.55;3.83;;;;;;;23.73;71.36;97648.63;5050977;28;20049;-71
2022/06/07 07:26:09;;;;;;;7.60;4.63;;;;;;;23.95;69.86;97645.56;5052137;28;20079;-70
2022/06/07 07:28:35;;;;;;;8.13;3.92;;;;;;;24.05;69.38;97648.81;5051947;28;20176;-71
2022/06/07 07:31:03;;;;;;;6.75;4.45;;;;;;;23.97;69.49;97647.97;5051056;28;20025;-70
2022/06/07 07:33:29;;;;;;;6.85;4.47;;;;;;;24.12;69.09;97644.06;5051396;28;20036;-70
2022/06/07 07:35:54;;;;;;;11.23;4.20;;;;;;;24.73;67.12;97651.50;5043033;28;20084;-70
2022/06/07 07:38:20;;;;;;;7.75;4.28;;;;;;;24.81;65.23;97646.75;5056003;28;20551;-71
2022/06/07 07:40:46;;;;;;;5.75;3.80;;;;;;;25.10;64.20;97640.00;5056497;28;20043;-70
2022/06/07 07:43:12;;;;;;;4.50;3.78;;;;;;;25.52;63.05;97648.47;5056483;28;20032;-70
2022/06/07 07:45:37;;;;;;;5.80;3.63;;;;;;;25.75;62.04;97642.41;5056577;28;20103;-71
2022/06/07 07:48:04;;;;;;;7.13;3.60;;;;;;;25.74;60.82;97642.81;5056024;28;20024;-72
2022/06/07 07:50:29;;;;;;;4.43;3.15;;;;;;;26.02;58.82;97635.16;5050442;28;20090;-71
2022/06/07 07:52:58;;;;;;;4.78;3.30;;;;;;;26.15;58.80;97641.13;5055639;28;20529;-71
2022/06/07 07:55:24;;;;;;;6.68;3.60;;;;;;;26.07;59.62;97631.13;5055957;28;20016;-71
2022/06/07 07:57:49;;;;;;;5.78;4.15;;;;;;;26.05;60.35;97630.75;5049680;28;20024;-71
2022/06/07 08:00:15;;;;;;;8.50;3.78;;;;;;;25.99;60.31;97635.16;5046142;28;20550;-72
2022/06/07 08:02:40;;;;;;;5.40;3.50;;;;;;;26.52;59.48;97623.78;5043022;28;20025;-71
2022/06/07 08:05:06;;;;;;;5.68;3.60;;;;;;;25.85;60.73;97618.38;5046177;28;20085;-70
2022/06/07 08:07:32;;;;;;;6.40;4.35;;;;;;;26.30;59.56;97616.66;5055780;28;20029;-71
2022/06/07 08:10:00;;;;;;;4.57;3.30;;;;;;;26.75;58.42;97618.41;5056392;28;20052;-72
2022/06/07 08:12:26;;;;;;;6.07;3.67;;;;;;;27.15;57.26;97614.19;5056011;28;20394;-70
2022/06/07 08:14:51;;;;;;;6.03;4.22;;;;;;;26.82;57.45;97615.59;5055437;28;20108;-70
2022/06/07 08:17:16;;;;;;;4.82;3.70;;;;;;;26.89;57.71;97611.94;5056177;28;20119;-70
2022/06/07 08:19:42;;;;;;;5.15;3.60;;;;;;;27.20;56.40;97619.34;5056360;28;20035;-69
2022/06/07 08:22:09;;;;;;;5.78;3.55;;;;;;;26.93;56.83;97616.34;5055354;28;20140;-69
2022/06/07 08:24:35;;;;;;;6.40;4.18;;;;;;;26.71;57.58;97616.84;5056306;28;20028;-70
2022/06/07 08:27:00;;;;;;;5.75;3.65;;;;;;;27.44;55.93;97612.75;5055512;28;20437;-70
2022/06/07 08:29:26;;;;;;;5.15;3.30;;;;;;;27.59;55.64;97614.25;5045491;28;20367;-70
2022/06/07 08:31:51;;;;;;;4.72;3.95;;;;;;;28.12;53.84;97610.09;5035918;28;20037;-71
2022/06/07 08:39:45;;;;;;;6.68;3.75;;;;;;;25.75;61.51;97597.56;5033212;28;20097;-69
2022/06/07 08:42:54;;;;;;;5.70;3.90;;;;;;;25.58;62.55;97600.41;5032545;28;20029;-70
2022/06/07 08:45:26;;;;;;;4.75;3.40;;;;;;;24.49;65.93;97597.09;5013605;28;20047;-69
2022/06/07 08:47:58;;;;;;;5.60;3.42;;;;;;;24.53;66.66;97600.69;5034365;28;20025;-69
2022/06/07 08:50:26;;;;;;;5.22;3.45;;;;;;;25.24;64.36;97588.81;5033626;28;20038;-69
2022/06/07 08:53:20;;;;;;;5.18;3.40;;;;;;;26.38;60.83;97593.78;5033133;28;20025;-70
2022/06/07 08:55:52;;;;;;;4.05;3.20;;;;;;;27.92;56.69;97601.44;5034610;28;20097;-70
2022/06/07 08:58:33;;;;;;;5.40;3.47;;;;;;;27.74;55.42;97606.44;5033836;28;20045;-70
2022/06/07 09:01:10;;;;;;;3.70;3.10;;;;;;;26.57;59.28;97593.28;5032771;28;20026;-69
2022/06/07 09:03:55;;;;;;;4.22;3.28;;;;;;;27.55;55.77;97590.19;5032046;28;20014;-70
2022/06/07 09:06:26;;;;;;;6.78;3.25;;;;;;;28.42;54.37;97584.78;5032489;28;20356;-71
2022/06/07 09:08:58;;;;;;;7.40;3.38;;;;;;;28.04;54.38;97586.03;5014720;28;20445;-69
2022/06/07 09:14:18;;;;;;;4.13;2.95;;;;;;;28.15;52.63;97581.13;5032499;28;20044;-70
2022/06/07 09:16:44;;;;;;;4.55;3.25;;;;;;;27.66;53.30;97571.19;5032271;28;20017;-70
2022/06/07 09:19:12;;;;;;;5.10;2.90;;;;;;;26.92;55.74;97566.19;5030890;28;20108;-70
2022/06/07 09:21:42;;;;;;;4.65;3.30;;;;;;;27.00;56.03;97562.91;5032064;28;20183;-70
2022/06/07 09:24:32;;;;;;;4.80;3.47;;;;;;;26.66;56.95;97563.97;5028473;28;20040;-70
2022/06/07 09:27:15;;;;;;;6.55;3.42;;;;;;;26.41;58.07;97553.66;5031788;28;20041;-69
2022/06/07 09:29:41;;;;;;;5.28;3.50;;;;;;;25.83;60.14;97545.09;5032347;28;20033;-70
2022/06/07 09:32:15;;;;;;;7.65;3.47;;;;;;;26.04;60.03;97550.63;5031930;28;20033;-70
2022/06/07 09:35:09;;;;;;;6.75;3.63;;;;;;;26.67;58.37;97548.69;5031770;28;20648;-70
2022/06/07 09:37:49;;;;;;;5.38;3.50;;;;;;;26.84;58.19;97553.44;5030863;28;20033;-69
2022/06/07 09:40:31;;;;;;;5.30;3.17;;;;;;;26.38;58.67;97537.66;5047750;28;20032;-71
2022/06/07 09:43:11;;;;;;;5.63;3.67;;;;;;;26.13;59.57;97541.75;5048107;28;20037;-69
2022/06/07 09:46:07;;;;;;;5.75;3.28;;;;;;;25.94;59.55;97537.44;5049816;28;20502;-69
2022/06/07 09:48:41;;;;;;;4.95;3.50;;;;;;;26.29;58.41;97537.31;5040875;28;20033;-70
2022/06/07 09:51:24;;;;;;;7.38;3.10;;;;;;;26.93;56.96;97539.72;5030995;28;20033;-69
2022/06/07 09:53:55;;;;;;;3.20;2.65;;;;;;;27.00;54.99;97528.44;5031035;28;20037;-71
2022/06/07 09:56:31;;;;;;;3.28;2.40;;;;;;;26.01;55.74;97518.59;5030698;28;20128;-69
2022/06/07 09:59:26;;;;;;;4.25;2.42;;;;;;;25.52;57.41;97518.78;5031036;28;20109;-70
2022/06/07 10:01:59;;;;;;;4.03;2.58;;;;;;;26.43;55.95;97512.00;5030580;28;20164;-69
2022/06/07 10:04:50;;;;;;;2.97;2.20;;;;;;;26.66;55.02;97519.06;5030664;28;20017;-69
2022/06/07 10:07:39;;;;;;;3.00;2.42;;;;;;;26.48;54.38;97513.56;5030006;28;20075;-70
2022/06/07 10:10:33;;;;;;;5.10;2.55;;;;;;;27.23;53.00;97513.78;5030823;28;20221;-69
2022/06/07 10:13:46;;;;;;;5.72;2.30;;;;;;;27.51;52.22;97511.50;5030289;28;20603;-70
2022/06/07 10:16:20;;;;;;;4.47;2.75;;;;;;;27.28;52.52;97505.72;4994656;28;20120;-70
2022/06/07 10:19:08;;;;;;;3.10;2.40;;;;;;;27.43;52.02;97504.38;5030075;28;20767;-69
2022/06/07 10:21:49;;;;;;;3.28;2.40;;;;;;;27.98;50.23;97503.31;5029800;28;20525;-71
2022/06/07 10:24:20;;;;;;;4.00;2.80;;;;;;;28.06;50.36;97504.88;5030513;28;20037;-70
2022/06/07 10:26:52;;;;;;;3.17;2.60;;;;;;;27.65;52.38;97493.69;5030259;28;20108;-69
2022/06/07 10:29:33;;;;;;;4.65;2.80;;;;;;;27.52;52.39;97493.44;5030942;28;20037;-69
2022/06/07 10:32:04;;;;;;;3.22;2.42;;;;;;;27.70;52.10;97486.78;5033773;28;20553;-70
2022/06/07 10:34:49;;;;;;;2.90;2.40;;;;;;;27.96;50.16;97489.69;5047533;28;20045;-70
2022/06/07 10:37:30;;;;;;;3.22;2.25;;;;;;;28.38;49.09;97477.06;5044176;28;20029;-70
2022/06/07 10:40:08;;;;;;;4.45;2.80;;;;;;;28.59;48.26;97484.41;5030532;28;20893;-70
2022/06/07 10:42:41;;;;;;;7.35;3.30;;;;;;;28.04;49.29;97484.75;5030189;28;20071;-70
2022/06/07 10:45:27;;;;;;;3.90;2.45;;;;;;;27.20;49.25;97481.69;5030513;28;20029;-70
2022/06/07 10:48:14;;;;;;;3.92;2.33;;;;;;;26.89;49.99;97477.19;5030237;28;20090;-70
2022/06/07 10:50:55;;;;;;;3.67;2.20;;;;;;;26.58;50.26;97468.59;5046012;28;20029;-70
2022/06/07 10:53:27;;;;;;;3.05;2.10;;;;;;;27.01;49.54;97468.25;5050079;28;20074;-70
2022/06/07 10:56:14;;;;;;;3.83;2.20;;;;;;;27.27;48.33;97463.97;5050174;28;20029;-71
2022/06/07 10:58:43;;;;;;;4.72;2.30;;;;;;;27.17;49.73;97467.69;5050866;28;20072;-70
2022/06/07 11:01:32;;;;;;;4.28;2.25;;;;;;;26.76;50.10;97462.00;5055475;28;20040;-70
2022/06/07 11:09:19;;;;;;;5.18;2.25;;;;;;;26.89;49.36;97458.31;5054393;28;20187;-69
2022/06/07 11:10:00;;;;;;;4.07;2.40;;;;;;;27.06;49.01;97448.16;5050606;28;20047;-70
2022/06/07 11:12:30;;;;;;;2.78;2.10;;;;;;;26.99;49.86;97449.00;5046052;28;20831;-70
2022/06/07 11:15:33;;;;;;;4.80;2.30;;;;;;;26.61;50.45;97450.91;5031480;28;20094;-71
2022/06/07 11:18:21;;;;;;;3.20;2.20;;;;;;;26.51;51.10;97442.56;5048243;28;20037;-71
2022/06/07 11:21:40;;;;;;;4.72;2.30;;;;;;;26.86;51.21;97433.09;5049607;28;20129;-71
2022/06/07 11:24:16;;;;;;;4.30;2.30;;;;;;;27.09;50.38;97431.25;5024442;28;20033;-70
2022/06/07 11:26:50;;;;;;;4.30;2.20;;;;;;;27.56;48.02;97428.75;5049780;28;20025;-71
2022/06/07 11:29:22;;;;;;;2.80;2.20;;;;;;;26.98;48.74;97421.34;5050182;28;20094;-71
2022/06/07 11:31:48;;;;;;;2.92;1.90;;;;;;;26.80;49.42;97418.72;5031480;28;20036;-71
2022/06/07 11:34:13;;;;;;;3.70;1.85;;;;;;;26.84;49.42;97424.28;5035429;28;20029;-69
2022/06/07 11:36:41;;;;;;;2.90;2.03;;;;;;;27.44;48.23;97415.25;5049905;28;20072;-69
2022/06/07 11:39:28;;;;;;;2.72;2.05;;;;;;;28.17;46.73;97416.28;5039622;28;20286;-71
2022/06/07 11:42:21;;;;;;;2.90;1.90;;;;;;;28.48;45.43;97402.13;5035147;28;20052;-70
2022/06/07 11:45:16;;;;;;;2.78;2.10;;;;;;;28.16;46.00;97405.47;5049213;28;20478;-70
2022/06/07 11:47:45;;;;;;;3.83;2.10;;;;;;;27.55;46.62;97401.84;5032659;28;20024;-70
2022/06/07 11:50:27;;;;;;;3.30;2.20;;;;;;;27.56;47.29;97406.28;5038852;28;20069;-70
2022/06/07 11:53:13;;;;;;;4.15;2.25;;;;;;;27.09;47.63;97388.34;5048950;28;20497;-70
2022/06/07 11:55:42;;;;;;;3.53;2.63;;;;;;;26.75;48.53;97390.25;5035159;28;20440;-68
2022/06/07 11:58:07;;;;;;;2.83;2.30;;;;;;;27.18;46.85;97383.00;5038427;28;20386;-70
2022/06/07 12:00:45;;;;;;;4.45;2.30;;;;;;;27.79;45.78;97369.00;5034739;28;20029;-70
2022/06/07 12:03:23;;;;;;;3.58;2.20;;;;;;;28.34;45.12;97379.84;5045074;28;20083;-69
2022/06/07 12:06:18;;;;;;;3.63;2.10;;;;;;;27.86;45.38;97377.34;5028906;28;20029;-69
2022/06/07 12:08:56;;;;;;;3.63;2.30;;;;;;;27.42;46.33;97376.28;5034434;28;20041;-69